Time;durP1;ratioP1;P1;durP2;ratioP2;P2;SDS_P1;SDS_P2;PMS_P1;PMS_P2;Temp;Humidity;BMP_temperature;BMP_pressure;BME280_temperature;BME280_humidity;BME280_pressure;Samples;Min_cycle;Max_cycle;Signal;HPM_P1;HPM_P2
2021/09/08 00:00:31;;;;;;;10.27;8.82;;;21.10;63.60;;;;;;5087152;28;20032;-76
2021/09/08 00:02:59;;;;;;;9.70;8.75;;;21.10;63.60;;;;;;5088938;28;20502;-76
2021/09/08 00:05:26;;;;;;;10.35;9.25;;;21.10;63.70;;;;;;5108853;28;20031;-80
2021/09/08 00:07:52;;;;;;;10.90;9.15;;;21.00;63.60;;;;;;5108579;28;20393;-80
2021/09/08 00:10:18;;;;;;;11.43;10.40;;;21.00;63.60;;;;;;5108337;28;20382;-78
2021/09/08 00:12:45;;;;;;;10.25;8.73;;;21.00;63.70;;;;;;5108247;28;20355;-78
2021/09/08 00:15:11;;;;;;;9.55;8.55;;;20.90;63.50;;;;;;5087873;28;20043;-78
2021/09/08 00:17:38;;;;;;;9.60;8.60;;;21.00;63.70;;;;;;5088029;28;20505;-78
2021/09/08 00:20:05;;;;;;;9.90;8.90;;;20.90;63.60;;;;;;5086417;28;20024;-78
2021/09/08 00:22:31;;;;;;;10.45;9.02;;;20.90;63.70;;;;;;5087672;28;20051;-77
2021/09/08 00:24:58;;;;;;;9.85;8.90;;;20.90;63.70;;;;;;5106321;28;20024;-79
2021/09/08 00:27:24;;;;;;;10.00;9.05;;;20.90;63.80;;;;;;5108197;28;20031;-77
2021/09/08 00:29:50;;;;;;;9.63;8.70;;;20.80;63.70;;;;;;5108157;28;20028;-78
2021/09/08 00:32:17;;;;;;;10.43;9.43;;;20.80;63.70;;;;;;5108131;28;20474;-78
2021/09/08 00:34:43;;;;;;;10.88;9.77;;;20.80;63.80;;;;;;5107993;28;20031;-79
2021/09/08 00:37:09;;;;;;;11.45;9.73;;;20.80;63.80;;;;;;5072819;28;20032;-78
2021/09/08 00:39:36;;;;;;;11.30;9.80;;;20.80;63.80;;;;;;5081585;28;20489;-80
2021/09/08 00:42:17;;;;;;;11.10;9.20;;;20.80;63.90;;;;;;5087642;28;20194;-80
2021/09/08 00:44:44;;;;;;;10.65;9.55;;;20.80;64.00;;;;;;5085963;28;20036;-78
2021/09/08 00:47:13;;;;;;;10.90;9.88;;;20.80;64.00;;;;;;5087254;28;20505;-77
2021/09/08 00:49:41;;;;;;;12.05;10.43;;;20.80;64.00;;;;;;5101348;28;20115;-77
2021/09/08 00:52:10;;;;;;;12.93;9.88;;;20.70;63.90;;;;;;5105948;28;20466;-77
2021/09/08 00:54:37;;;;;;;11.77;9.32;;;20.70;63.90;;;;;;5092878;28;20063;-76
2021/09/08 00:57:08;;;;;;;11.40;10.25;;;20.70;64.00;;;;;;5086188;28;20047;-79
2021/09/08 00:59:35;;;;;;;11.10;10.07;;;20.70;64.00;;;;;;5087809;28;20077;-80
2021/09/08 01:02:04;;;;;;;10.45;9.50;;;20.70;64.00;;;;;;5065044;28;20358;-80
2021/09/08 01:04:32;;;;;;;11.02;9.63;;;20.70;64.10;;;;;;5093711;28;20516;-78
2021/09/08 01:07:01;;;;;;;11.05;9.88;;;20.60;63.90;;;;;;5107691;28;20034;-78
2021/09/08 01:09:28;;;;;;;10.65;9.65;;;20.60;64.00;;;;;;5106483;28;20032;-81
2021/09/08 01:11:57;;;;;;;12.38;10.25;;;20.60;64.00;;;;;;5107306;28;20197;-81
2021/09/08 01:14:23;;;;;;;11.02;9.88;;;20.60;64.10;;;;;;5093047;28;20032;-81
2021/09/08 01:16:56;;;;;;;14.55;10.18;;;20.50;64.00;;;;;;5053009;28;20032;-78
2021/09/08 01:19:23;;;;;;;11.27;10.18;;;20.50;64.00;;;;;;5086669;28;20043;-81
2021/09/08 01:21:49;;;;;;;11.10;10.00;;;20.50;64.10;;;;;;5086801;28;20374;-78
2021/09/08 01:24:16;;;;;;;12.30;11.00;;;20.50;64.20;;;;;;5086884;28;20035;-79
2021/09/08 01:26:44;;;;;;;11.05;9.98;;;20.40;64.10;;;;;;5086624;28;20055;-78
2021/09/08 01:29:10;;;;;;;13.02;10.27;;;20.40;64.20;;;;;;5087030;28;20032;-79
2021/09/08 01:31:36;;;;;;;10.95;9.55;;;20.40;64.20;;;;;;5091626;22;20522;-78
2021/09/08 01:34:04;;;;;;;11.90;10.77;;;20.40;64.30;;;;;;5066553;28;20021;-79
2021/09/08 01:36:36;;;;;;;13.73;10.20;;;20.30;64.10;;;;;;5066559;28;20119;-79
2021/09/08 01:39:03;;;;;;;12.27;11.00;;;20.30;64.20;;;;;;5069035;28;20030;-78
2021/09/08 01:41:29;;;;;;;12.77;11.25;;;20.30;64.20;;;;;;5066848;28;20394;-77
2021/09/08 01:43:55;;;;;;;11.63;10.23;;;20.30;64.30;;;;;;5068253;28;20479;-77
2021/09/08 01:46:22;;;;;;;13.82;11.05;;;20.20;64.20;;;;;;5074779;22;20143;-84
2021/09/08 01:48:49;;;;;;;12.52;10.55;;;20.10;64.10;;;;;;5032545;28;20045;-84
2021/09/08 01:51:16;;;;;;;11.85;10.60;;;20.20;64.40;;;;;;5050305;28;20090;-80
2021/09/08 01:53:42;;;;;;;12.45;11.23;;;20.10;64.30;;;;;;5049032;28;20163;-85
2021/09/08 01:56:08;;;;;;;13.60;11.70;;;20.10;64.40;;;;;;5032311;28;20132;-85
2021/09/08 01:58:35;;;;;;;13.43;12.07;;;20.10;64.50;;;;;;5048629;28;20026;-80
2021/09/08 02:01:03;;;;;;;12.10;10.93;;;20.00;64.40;;;;;;5048727;28;20029;-85
2021/09/08 02:03:29;;;;;;;14.05;12.65;;;20.00;64.40;;;;;;5048930;28;20128;-82
2021/09/08 02:05:55;;;;;;;13.63;12.02;;;20.00;64.50;;;;;;5048550;28;20032;-85
2021/09/08 02:08:22;;;;;;;15.50;12.02;;;20.00;64.50;;;;;;5048419;28;20064;-84
2021/09/08 02:10:48;;;;;;;14.98;12.57;;;20.00;64.60;;;;;;5048481;28;20021;-82
2021/09/08 02:13:15;;;;;;;12.48;11.13;;;20.00;64.60;;;;;;5048969;28;20029;-84
2021/09/08 02:15:41;;;;;;;12.88;11.60;;;20.00;64.70;;;;;;5049071;28;20025;-86
2021/09/08 02:18:07;;;;;;;14.90;11.95;;;19.90;64.60;;;;;;5032021;28;20048;-80
2021/09/08 02:20:33;;;;;;;12.75;11.55;;;19.90;64.60;;;;;;5032509;28;20029;-86
2021/09/08 02:22:59;;;;;;;12.82;11.48;;;19.90;64.70;;;;;;5048597;28;20052;-85
2021/09/08 02:25:25;;;;;;;12.52;11.10;;;19.90;64.80;;;;;;5049205;28;20163;-82
2021/09/08 02:27:51;;;;;;;13.60;11.95;;;19.90;64.80;;;;;;5032559;28;20474;-84
2021/09/08 02:30:18;;;;;;;14.65;12.60;;;19.90;64.80;;;;;;5032170;28;20371;-79
2021/09/08 02:32:44;;;;;;;15.85;12.18;;;19.90;64.90;;;;;;5048766;28;20029;-85
2021/09/08 02:35:10;;;;;;;13.82;12.35;;;19.90;64.90;;;;;;5032429;28;20055;-83
2021/09/08 02:37:36;;;;;;;13.23;11.93;;;19.90;64.90;;;;;;5032586;28;20025;-85
2021/09/08 02:40:03;;;;;;;13.45;11.85;;;19.90;64.90;;;;;;5049249;28;20029;-88
2021/09/08 02:42:28;;;;;;;13.30;11.93;;;19.90;65.00;;;;;;5049040;28;20110;-86
2021/09/08 02:44:54;;;;;;;14.32;12.77;;;19.90;65.00;;;;;;5032209;28;20032;-88
2021/09/08 02:47:20;;;;;;;13.85;12.48;;;19.80;64.80;;;;;;5049182;28;20132;-88
2021/09/08 02:49:46;;;;;;;14.07;12.65;;;19.90;65.00;;;;;;5049220;28;20045;-87
2021/09/08 02:52:12;;;;;;;14.82;12.55;;;19.80;64.90;;;;;;5048998;28;20083;-86
2021/09/08 02:54:38;;;;;;;17.08;12.57;;;19.80;65.00;;;;;;5049391;28;20033;-88
2021/09/08 02:57:04;;;;;;;13.98;12.50;;;19.80;65.00;;;;;;5050559;28;20064;-88
2021/09/08 02:59:30;;;;;;;14.30;12.88;;;19.80;65.00;;;;;;5048782;28;20104;-85
2021/09/08 03:01:56;;;;;;;15.25;12.93;;;19.80;65.10;;;;;;5034279;28;20140;-86
2021/09/08 03:04:22;;;;;;;13.00;11.80;;;19.80;65.10;;;;;;5028735;28;20033;-85
2021/09/08 03:06:49;;;;;;;14.88;13.38;;;19.70;65.00;;;;;;5011492;28;20504;-85
2021/09/08 03:09:16;;;;;;;14.18;12.80;;;19.80;65.20;;;;;;5028108;28;20095;-85
2021/09/08 03:11:42;;;;;;;13.43;11.43;;;19.70;65.10;;;;;;5028393;28;20164;-86
2021/09/08 03:14:08;;;;;;;15.13;12.32;;;19.70;65.10;;;;;;5028198;28;20079;-83
2021/09/08 03:16:35;;;;;;;15.43;12.05;;;19.70;65.10;;;;;;5028922;28;20507;-85
2021/09/08 03:19:01;;;;;;;15.25;13.20;;;19.70;65.20;;;;;;5047353;28;20431;-85
2021/09/08 03:21:26;;;;;;;14.93;12.80;;;19.70;65.20;;;;;;5053237;28;20217;-86
2021/09/08 03:23:52;;;;;;;14.75;13.25;;;19.70;65.30;;;;;;5051870;28;20418;-87
2021/09/08 03:26:19;;;;;;;14.55;13.05;;;19.60;65.10;;;;;;5035427;28;20043;-83
2021/09/08 03:28:45;;;;;;;20.38;13.43;;;19.60;65.20;;;;;;5052367;28;20067;-83
2021/09/08 03:31:11;;;;;;;14.18;12.68;;;19.60;65.20;;;;;;5035220;28;20056;-86
2021/09/08 03:33:37;;;;;;;13.95;12.20;;;19.60;65.30;;;;;;5035231;28;20451;-80
2021/09/08 03:36:04;;;;;;;14.35;12.95;;;19.60;65.30;;;;;;5051902;28;20043;-85
2021/09/08 03:38:30;;;;;;;16.25;13.05;;;19.60;65.30;;;;;;5052678;28;20029;-83
2021/09/08 03:40:56;;;;;;;13.77;12.48;;;19.60;65.30;;;;;;5051684;28;20033;-85
2021/09/08 03:43:22;;;;;;;15.30;13.13;;;19.60;65.40;;;;;;5052883;28;20049;-87
2021/09/08 03:45:48;;;;;;;14.77;13.27;;;19.50;65.30;;;;;;5053104;28;20039;-83
2021/09/08 03:48:14;;;;;;;16.60;14.40;;;19.50;65.30;;;;;;5052678;28;20388;-87
2021/09/08 03:50:39;;;;;;;16.38;13.73;;;19.50;65.40;;;;;;5050898;28;20059;-86
2021/09/08 03:53:05;;;;;;;16.15;13.65;;;19.50;65.40;;;;;;5050558;28;20124;-85
2021/09/08 03:55:31;;;;;;;15.23;13.73;;;19.50;65.50;;;;;;5052221;28;20122;-86
2021/09/08 03:57:57;;;;;;;15.57;12.73;;;19.40;65.30;;;;;;5050840;28;20210;-84
2021/09/08 04:00:23;;;;;;;14.95;13.43;;;19.40;65.40;;;;;;5049611;28;20112;-83
2021/09/08 04:02:49;;;;;;;15.13;12.93;;;19.40;65.50;;;;;;5030624;28;20373;-84
2021/09/08 04:05:17;;;;;;;15.55;13.63;;;19.40;65.50;;;;;;5014595;28;20033;-87
2021/09/08 04:07:42;;;;;;;14.13;12.73;;;19.40;65.60;;;;;;5031602;28;20103;-86
2021/09/08 04:10:09;;;;;;;14.18;12.88;;;19.40;65.70;;;;;;5032345;28;20057;-81
2021/09/08 04:12:35;;;;;;;14.77;13.27;;;19.40;65.70;;;;;;5033725;28;20029;-85
2021/09/08 04:15:01;;;;;;;13.18;11.93;;;19.30;65.60;;;;;;5033891;28;20079;-88
2021/09/08 04:17:27;;;;;;;14.18;12.77;;;19.30;65.60;;;;;;5020740;28;20102;-83
2021/09/08 04:19:53;;;;;;;15.73;14.27;;;19.30;65.60;;;;;;5051372;28;20045;-86
2021/09/08 04:22:19;;;;;;;14.90;13.30;;;19.30;65.70;;;;;;5052172;28;20081;-85
2021/09/08 04:24:45;;;;;;;14.93;13.50;;;19.30;65.70;;;;;;5052855;28;20029;-83
2021/09/08 04:27:10;;;;;;;15.60;14.02;;;19.30;65.70;;;;;;5035193;28;20051;-86
2021/09/08 04:29:36;;;;;;;14.77;13.23;;;19.30;65.80;;;;;;5052250;28;20029;-83
2021/09/08 04:32:03;;;;;;;14.45;13.00;;;19.20;65.60;;;;;;5052051;28;20500;-87
2021/09/08 04:34:29;;;;;;;14.85;13.43;;;19.30;65.80;;;;;;5051090;28;20048;-82
2021/09/08 04:36:55;;;;;;;15.55;13.85;;;19.30;65.80;;;;;;5034008;28;20480;-86
2021/09/08 04:39:21;;;;;;;18.70;13.98;;;19.30;65.90;;;;;;5034349;28;20029;-89
2021/09/08 04:41:46;;;;;;;15.85;14.25;;;19.30;65.90;;;;;;5034257;28;20044;-82
2021/09/08 04:44:12;;;;;;;16.55;14.93;;;19.20;65.80;;;;;;5052262;28;20175;-86
2021/09/08 04:46:38;;;;;;;15.50;13.90;;;19.20;65.80;;;;;;5052272;28;20064;-88
2021/09/08 04:49:04;;;;;;;14.60;12.93;;;19.20;65.90;;;;;;5027404;28;20491;-86
2021/09/08 04:51:30;;;;;;;16.60;14.13;;;19.20;65.90;;;;;;5028937;28;20032;-87
2021/09/08 04:53:56;;;;;;;15.50;14.02;;;19.20;65.90;;;;;;5028259;28;20040;-82
2021/09/08 04:56:22;;;;;;;16.65;13.40;;;19.20;66.00;;;;;;5044805;28;20103;-87
2021/09/08 04:58:48;;;;;;;15.55;13.98;;;19.10;65.80;;;;;;5028867;28;20084;-85
2021/09/08 05:01:14;;;;;;;15.80;14.18;;;19.10;65.90;;;;;;5028045;28;20493;-87
2021/09/08 05:03:41;;;;;;;16.77;14.48;;;19.10;65.90;;;;;;5037782;28;20040;-84
2021/09/08 05:06:07;;;;;;;15.00;13.70;;;19.00;65.80;;;;;;5048041;28;20059;-84
2021/09/08 05:08:34;;;;;;;16.10;14.00;;;19.00;65.80;;;;;;5035626;28;20029;-84
2021/09/08 05:10:59;;;;;;;15.02;13.48;;;19.00;65.90;;;;;;5028133;28;20113;-83
2021/09/08 05:13:25;;;;;;;23.17;13.77;;;19.00;65.90;;;;;;5025780;28;20120;-81
2021/09/08 05:15:51;;;;;;;16.80;15.00;;;19.00;66.00;;;;;;5025451;28;20025;-85
2021/09/08 05:18:17;;;;;;;16.73;15.02;;;18.90;65.90;;;;;;5039107;28;20045;-83
2021/09/08 05:20:44;;;;;;;16.02;14.23;;;18.90;65.90;;;;;;5046754;28;20063;-84
2021/09/08 05:23:10;;;;;;;17.58;15.27;;;18.90;66.00;;;;;;5046823;28;20044;-86
2021/09/08 05:25:36;;;;;;;16.50;14.77;;;18.90;66.00;;;;;;5045568;28;20029;-85
2021/09/08 05:28:02;;;;;;;17.67;13.77;;;18.80;65.90;;;;;;5042424;28;20087;-83
2021/09/08 05:30:28;;;;;;;15.35;13.77;;;18.80;66.00;;;;;;5028187;28;20079;-84
2021/09/08 05:32:54;;;;;;;16.00;14.40;;;18.80;66.10;;;;;;5044875;28;20029;-84
2021/09/08 05:35:20;;;;;;;17.88;15.23;;;18.70;65.90;;;;;;5044448;28;20025;-83
2021/09/08 05:37:46;;;;;;;17.45;15.63;;;18.80;66.10;;;;;;5045622;28;20469;-84
2021/09/08 05:40:12;;;;;;;17.48;14.48;;;18.70;66.00;;;;;;5045595;28;20033;-84
2021/09/08 05:42:38;;;;;;;19.70;15.27;;;18.70;66.10;;;;;;5045710;28;20083;-83
2021/09/08 05:45:05;;;;;;;20.73;16.88;;;18.60;66.00;;;;;;5046154;28;20032;-81
2021/09/08 05:47:31;;;;;;;21.35;19.33;;;18.70;66.50;;;;;;5046212;28;20048;-86
2021/09/08 05:49:57;;;;;;;22.65;17.10;;;18.70;67.40;;;;;;5046347;28;20421;-81
2021/09/08 05:52:23;;;;;;;23.05;18.52;;;18.70;68.30;;;;;;5046502;28;20052;-80
2021/09/08 05:54:49;;;;;;;23.10;19.42;;;18.70;68.30;;;;;;5045557;28;20068;-84
2021/09/08 05:57:15;;;;;;;22.65;19.00;;;18.70;68.40;;;;;;5044743;28;20044;-84
2021/09/08 05:59:40;;;;;;;25.17;18.80;;;18.60;68.40;;;;;;5045149;28;20097;-83
2021/09/08 06:02:06;;;;;;;23.25;20.15;;;18.70;68.70;;;;;;5044395;28;20041;-82
2021/09/08 06:04:32;;;;;;;22.42;20.08;;;18.60;69.00;;;;;;5045276;28;20665;-84
2021/09/08 06:06:58;;;;;;;30.27;20.63;;;18.70;69.60;;;;;;5043538;28;20120;-83
2021/09/08 06:09:24;;;;;;;22.02;19.70;;;18.60;69.50;;;;;;5010686;28;20068;-80
2021/09/08 06:11:54;;;;;;;22.45;19.70;;;18.60;69.60;;;;;;5031969;28;20029;-81
2021/09/08 06:14:20;;;;;;;21.67;18.80;;;18.70;69.80;;;;;;5040771;28;20634;-81
2021/09/08 06:16:46;;;;;;;23.55;21.10;;;18.60;69.70;;;;;;5037138;28;20025;-81
2021/09/08 06:19:12;;;;;;;25.15;22.42;;;18.60;70.20;;;;;;5042997;28;20071;-79
2021/09/08 06:21:38;;;;;;;24.85;22.15;;;18.70;71.10;;;;;;5045484;28;20428;-81
2021/09/08 06:24:04;;;;;;;23.92;21.50;;;18.70;71.80;;;;;;5040989;28;20512;-79
2021/09/08 06:26:31;;;;;;;25.00;21.88;;;18.70;72.10;;;;;;5030890;28;20035;-83
2021/09/08 06:28:57;;;;;;;25.15;21.00;;;18.70;72.20;;;;;;5031314;28;20065;-81
2021/09/08 06:31:23;;;;;;;25.00;22.25;;;18.80;72.40;;;;;;5024760;28;20025;-80
2021/09/08 06:33:50;;;;;;;25.13;22.15;;;18.90;72.80;;;;;;5024307;28;20048;-81
2021/09/08 06:36:17;;;;;;;24.48;21.98;;;18.90;73.20;;;;;;5025408;28;20030;-83
2021/09/08 06:38:43;;;;;;;25.20;22.58;;;19.00;73.50;;;;;;5024909;28;20029;-83
2021/09/08 06:41:09;;;;;;;28.80;21.88;;;19.20;73.70;;;;;;5024247;28;20030;-85
2021/09/08 06:43:35;;;;;;;23.38;20.92;;;19.30;73.70;;;;;;5008828;28;20136;-80
2021/09/08 06:46:01;;;;;;;29.27;21.70;;;19.50;73.70;;;;;;5026212;28;20050;-86
2021/09/08 06:48:27;;;;;;;25.63;21.50;;;19.60;73.40;;;;;;5040428;28;20106;-85
2021/09/08 06:50:53;;;;;;;27.15;20.48;;;19.80;73.40;;;;;;5044933;28;20107;-82
2021/09/08 06:53:19;;;;;;;22.90;20.33;;;19.90;73.00;;;;;;5044610;28;20150;-83
2021/09/08 06:55:45;;;;;;;21.85;19.65;;;20.10;72.80;;;;;;5049366;28;20556;-83
2021/09/08 06:58:11;;;;;;;23.33;20.85;;;20.20;72.60;;;;;;5048731;28;20392;-83
2021/09/08 07:00:37;;;;;;;23.63;21.08;;;20.30;72.20;;;;;;5046742;28;20102;-82
2021/09/08 07:03:03;;;;;;;22.25;19.63;;;20.40;71.90;;;;;;5048612;28;20470;-86
2021/09/08 07:05:29;;;;;;;27.90;20.20;;;20.40;71.50;;;;;;5047376;28;20670;-81
2021/09/08 07:07:55;;;;;;;21.92;19.60;;;20.40;71.20;;;;;;5042738;28;20112;-83
2021/09/08 07:10:21;;;;;;;26.50;20.45;;;20.40;71.00;;;;;;5027620;28;20041;-81
2021/09/08 07:12:47;;;;;;;22.58;20.02;;;20.50;71.00;;;;;;5028124;28;20116;-81
2021/09/08 07:15:13;;;;;;;23.13;20.77;;;20.50;70.70;;;;;;5010965;28;20033;-80
2021/09/08 07:17:39;;;;;;;22.13;20.02;;;20.50;70.50;;;;;;5036795;28;20175;-82
2021/09/08 07:20:06;;;;;;;21.83;19.45;;;20.60;70.40;;;;;;5046955;28;20136;-85
2021/09/08 07:22:32;;;;;;;22.42;20.23;;;20.60;70.20;;;;;;5045076;28;20540;-81
2021/09/08 07:24:58;;;;;;;22.08;19.65;;;20.70;70.10;;;;;;5027264;28;20037;-82
2021/09/08 07:27:25;;;;;;;23.17;19.20;;;20.70;70.00;;;;;;5028634;28;20401;-80
2021/09/08 07:29:51;;;;;;;21.40;19.27;;;20.80;69.90;;;;;;5046641;28;20330;-82
2021/09/08 07:32:17;;;;;;;20.70;18.67;;;20.80;69.70;;;;;;5043303;28;20036;-81
2021/09/08 07:34:43;;;;;;;22.65;20.02;;;20.80;69.50;;;;;;5028577;28;20026;-81
2021/09/08 07:37:09;;;;;;;20.58;18.48;;;20.90;69.40;;;;;;5027538;28;20040;-83
2021/09/08 07:39:35;;;;;;;21.52;19.42;;;20.90;69.30;;;;;;5027521;28;20112;-81
2021/09/08 07:42:02;;;;;;;23.58;19.30;;;20.90;69.10;;;;;;5026505;28;20059;-84
2021/09/08 07:44:28;;;;;;;28.10;21.33;;;21.00;69.40;;;;;;5036299;28;20091;-80
2021/09/08 07:46:54;;;;;;;24.20;20.60;;;21.10;69.80;;;;;;5039001;28;20352;-82
2021/09/08 07:49:20;;;;;;;26.05;20.88;;;21.20;70.30;;;;;;5042597;28;20353;-81
2021/09/08 07:51:46;;;;;;;25.08;22.23;;;21.30;70.50;;;;;;5029950;28;20447;-80
2021/09/08 07:54:12;;;;;;;22.90;20.42;;;21.60;70.80;;;;;;5047830;28;20146;-83
2021/09/08 07:56:38;;;;;;;23.08;20.67;;;21.90;71.00;;;;;;5047941;28;20104;-81
2021/09/08 07:59:04;;;;;;;23.40;20.92;;;22.10;70.70;;;;;;5046261;28;20191;-79
2021/09/08 08:01:32;;;;;;;24.80;22.13;;;22.30;70.40;;;;;;5047052;28;20025;-83
2021/09/08 08:03:59;;;;;;;22.83;20.35;;;22.40;70.10;;;;;;5045270;28;20372;-80
2021/09/08 08:06:25;;;;;;;22.95;20.05;;;22.50;69.80;;;;;;5045698;28;20377;-79
2021/09/08 08:08:51;;;;;;;27.73;21.73;;;22.70;69.70;;;;;;5046502;28;20052;-85
2021/09/08 08:11:17;;;;;;;25.55;19.98;;;22.80;69.40;;;;;;5047465;28;20033;-81
2021/09/08 08:13:47;;;;;;;24.25;21.35;;;22.90;69.20;;;;;;5030758;28;20091;-79
2021/09/08 08:16:14;;;;;;;22.45;20.13;;;23.00;69.00;;;;;;5027391;28;20418;-81
2021/09/08 08:18:40;;;;;;;23.20;20.80;;;23.10;68.80;;;;;;5030842;28;20385;-83
2021/09/08 08:21:06;;;;;;;24.75;20.30;;;23.20;68.70;;;;;;5011025;28;20033;-78
2021/09/08 08:23:32;;;;;;;22.38;19.98;;;23.30;68.70;;;;;;5041384;28;20404;-91
2021/09/08 08:25:58;;;;;;;24.02;20.58;;;23.30;68.40;;;;;;5048696;28;20033;-88
2021/09/08 08:28:24;;;;;;;27.33;20.35;;;23.40;68.40;;;;;;5047169;28;20037;-83
2021/09/08 08:30:52;;;;;;;26.27;18.95;;;23.50;68.50;;;;;;5046968;28;20068;-82
2021/09/08 08:33:18;;;;;;;25.08;19.30;;;23.50;68.30;;;;;;5036609;28;20044;-82
2021/09/08 08:35:44;;;;;;;29.25;21.27;;;23.50;68.10;;;;;;5028648;28;20480;-86
2021/09/08 08:38:10;;;;;;;25.98;18.85;;;23.60;68.20;;;;;;5026794;28;20036;-84
2021/09/08 08:40:36;;;;;;;25.20;19.08;;;23.70;68.20;;;;;;5011320;28;20475;-83
2021/09/08 08:43:02;;;;;;;26.70;18.40;;;23.70;67.90;;;;;;5034668;28;20068;-81
2021/09/08 08:45:30;;;;;;;23.10;17.25;;;23.70;67.70;;;;;;5046550;28;20055;-84
2021/09/08 08:47:58;;;;;;;21.60;17.25;;;23.80;67.70;;;;;;5042724;28;20110;-80
2021/09/08 08:50:26;;;;;;;19.63;17.08;;;23.80;67.50;;;;;;5027234;28;20036;-81
2021/09/08 08:52:53;;;;;;;21.35;18.30;;;23.80;67.30;;;;;;5034288;28;20033;-83
2021/09/08 08:55:19;;;;;;;21.60;17.10;;;23.90;67.30;;;;;;5045264;28;20033;-78
2021/09/08 08:57:48;;;;;;;18.42;16.38;;;24.00;67.40;;;;;;5042641;28;20033;-80
2021/09/08 09:00:19;;;;;;;20.33;17.75;;;24.00;67.30;;;;;;5008962;28;20049;-82
2021/09/08 09:02:51;;;;;;;19.23;15.40;;;24.10;67.20;;;;;;5033109;28;20048;-79
2021/09/08 09:05:36;;;;;;;25.60;16.92;;;24.10;67.00;;;;;;5045825;28;20056;-80
2021/09/08 09:08:04;;;;;;;18.48;15.63;;;24.10;66.80;;;;;;5042190;28;20036;-89
2021/09/08 09:10:30;;;;;;;22.05;16.27;;;24.30;67.00;;;;;;5028869;28;20033;-86
2021/09/08 09:12:56;;;;;;;16.77;15.00;;;24.30;66.90;;;;;;5026595;28;20037;-80
2021/09/08 09:15:24;;;;;;;22.63;16.88;;;24.40;66.80;;;;;;5026513;28;20025;-87
2021/09/08 09:17:50;;;;;;;16.67;15.05;;;24.50;66.80;;;;;;5035051;28;20104;-85
2021/09/08 09:20:24;;;;;;;16.75;14.10;;;24.50;66.60;;;;;;5028497;28;20085;-84
2021/09/08 09:22:53;;;;;;;16.45;14.82;;;24.60;66.50;;;;;;5046472;28;20471;-83
2021/09/08 09:25:33;;;;;;;15.65;14.00;;;24.70;66.40;;;;;;5045787;28;20378;-83
2021/09/08 09:28:03;;;;;;;17.63;14.38;;;24.70;66.20;;;;;;5044865;28;20024;-81
2021/09/08 09:30:32;;;;;;;15.43;13.80;;;24.70;66.10;;;;;;5045064;28;20036;-87
2021/09/08 09:32:59;;;;;;;18.05;14.38;;;24.80;66.10;;;;;;5045887;28;20025;-81
2021/09/08 09:35:28;;;;;;;19.52;15.20;;;24.90;66.20;;;;;;5044517;28;20337;-82
2021/09/08 09:37:58;;;;;;;17.40;15.18;;;24.90;66.00;;;;;;5046612;28;20025;-81
2021/09/08 09:40:34;;;;;;;15.20;13.48;;;25.00;66.00;;;;;;5046628;28;20488;-80
2021/09/08 09:43:06;;;;;;;16.33;14.75;;;25.00;65.80;;;;;;5044459;28;20037;-81
2021/09/08 09:45:34;;;;;;;16.38;14.73;;;25.10;65.60;;;;;;5046311;28;20056;-83
2021/09/08 09:48:01;;;;;;;18.02;13.10;;;25.10;65.50;;;;;;5039868;28;20568;-82
2021/09/08 09:50:28;;;;;;;18.42;13.98;;;25.20;65.80;;;;;;5025104;28;20022;-81
2021/09/08 09:52:54;;;;;;;15.95;13.60;;;25.30;65.10;;;;;;5034601;28;20568;-81
2021/09/08 09:55:23;;;;;;;17.13;13.77;;;25.30;65.00;;;;;;5045603;28;20036;-81
2021/09/08 09:57:49;;;;;;;18.52;13.45;;;25.40;64.90;;;;;;5025305;28;20068;-81
2021/09/08 10:00:17;;;;;;;15.73;13.07;;;25.50;64.80;;;;;;5024874;28;20033;-80
2021/09/08 10:02:44;;;;;;;14.07;12.70;;;25.60;64.70;;;;;;5029262;28;20072;-84
2021/09/08 10:05:12;;;;;;;13.93;12.48;;;25.70;64.60;;;;;;5045556;28;20187;-81
2021/09/08 10:07:39;;;;;;;16.55;12.93;;;25.80;64.60;;;;;;5044138;28;20329;-79
2021/09/08 10:10:12;;;;;;;13.90;12.60;;;25.90;64.60;;;;;;5046143;28;20067;-83
2021/09/08 10:12:44;;;;;;;14.25;12.95;;;25.90;64.50;;;;;;5044331;28;20033;-80
2021/09/08 10:15:12;;;;;;;15.13;13.50;;;26.00;64.40;;;;;;5036456;28;20033;-83
2021/09/08 10:17:44;;;;;;;15.27;12.90;;;26.00;64.40;;;;;;5040133;28;20033;-81
2021/09/08 10:20:14;;;;;;;15.75;13.75;;;26.10;64.40;;;;;;5008539;28;20033;-82
2021/09/08 10:22:43;;;;;;;14.98;13.48;;;26.20;64.40;;;;;;5025777;28;20045;-80
2021/09/08 10:25:11;;;;;;;15.32;12.70;;;26.30;64.20;;;;;;5024166;28;20095;-81
2021/09/08 10:27:38;;;;;;;15.50;13.85;;;26.40;64.10;;;;;;5024725;28;20068;-81
2021/09/08 10:30:04;;;;;;;14.60;13.10;;;26.40;63.80;;;;;;5029683;28;20025;-85
2021/09/08 10:32:32;;;;;;;15.25;12.13;;;26.50;63.60;;;;;;5029719;28;20022;-83
2021/09/08 10:34:58;;;;;;;17.13;12.45;;;26.60;63.30;;;;;;5028479;28;20174;-83
2021/09/08 10:37:24;;;;;;;14.32;11.70;;;26.70;63.20;;;;;;5028046;28;20040;-81
2021/09/08 10:39:54;;;;;;;21.33;12.70;;;26.80;62.70;;;;;;5032660;28;20091;-81
2021/09/08 10:42:47;;;;;;;14.60;11.50;;;26.80;62.20;;;;;;5032330;28;20045;-81
2021/09/08 10:45:19;;;;;;;15.75;10.93;;;26.80;61.90;;;;;;5034515;28;20033;-80
2021/09/08 10:47:45;;;;;;;17.63;12.68;;;26.90;61.80;;;;;;5049107;28;20049;-81
2021/09/08 10:50:13;;;;;;;13.25;10.70;;;26.80;61.60;;;;;;5033885;28;20030;-81
2021/09/08 10:52:42;;;;;;;15.02;12.13;;;26.90;61.50;;;;;;5030394;28;20087;-85
2021/09/08 10:55:13;;;;;;;15.40;11.18;;;27.00;61.60;;;;;;5032462;28;20045;-82
2021/09/08 10:57:46;;;;;;;17.48;11.77;;;27.00;61.20;;;;;;5032890;28;20104;-83
2021/09/08 11:00:19;;;;;;;15.15;12.15;;;27.10;61.10;;;;;;5031260;28;20090;-80
2021/09/08 11:02:45;;;;;;;;;;;27.20;61.00;;;;;;5035907;28;20427;-81
2021/09/08 11:05:12;;;;;;;11.93;10.23;;;27.20;61.20;;;;;;5047102;28;19916;-82
2021/09/08 11:07:39;;;;;;;13.40;10.90;;;27.30;61.00;;;;;;5031650;28;20090;-82
2021/09/08 11:10:06;;;;;;;14.13;11.43;;;27.30;60.80;;;;;;5031136;28;20362;-80
2021/09/08 11:12:45;;;;;;;12.93;11.30;;;27.30;60.60;;;;;;5029822;28;20120;-82
2021/09/08 11:15:12;;;;;;;17.02;11.10;;;27.30;60.30;;;;;;5048055;28;20119;-82
2021/09/08 11:17:38;;;;;;;11.95;10.27;;;27.40;60.40;;;;;;5044560;28;20487;-81
2021/09/08 11:20:05;;;;;;;15.88;11.38;;;27.50;60.40;;;;;;5025922;28;20446;-82
2021/09/08 11:22:31;;;;;;;12.13;10.40;;;27.50;60.20;;;;;;5027374;28;20464;-82
2021/09/08 11:25:07;;;;;;;12.20;10.90;;;27.50;60.20;;;;;;5030147;28;20375;-82
2021/09/08 11:27:34;;;;;;;14.02;10.52;;;27.50;59.90;;;;;;5036750;28;20067;-82
2021/09/08 11:30:05;;;;;;;12.38;9.02;;;27.50;60.00;;;;;;5028069;28;20029;-84
2021/09/08 11:32:55;;;;;;;13.45;10.13;;;27.50;59.80;;;;;;5027623;28;20029;-82
2021/09/08 11:35:43;;;;;;;10.85;9.52;;;27.40;59.80;;;;;;5045888;28;20033;-83
2021/09/08 11:38:19;;;;;;;11.13;9.82;;;27.40;60.00;;;;;;5040309;28;20026;-84
2021/09/08 11:41:00;;;;;;;12.57;10.30;;;27.30;59.80;;;;;;5029958;28;20477;-83
2021/09/08 11:43:33;;;;;;;12.20;10.32;;;27.30;59.50;;;;;;5027649;28;20503;-82
2021/09/08 11:46:14;;;;;;;11.90;10.48;;;27.40;59.40;;;;;;5036489;28;20559;-82
2021/09/08 11:48:41;;;;;;;15.05;11.02;;;27.50;59.30;;;;;;5035288;28;20025;-83
2021/09/08 11:51:10;;;;;;;13.75;9.88;;;27.50;59.30;;;;;;5025733;28;20034;-82
2021/09/08 11:53:37;;;;;;;12.90;9.63;;;27.60;59.10;;;;;;5025758;28;20033;-82
2021/09/08 11:56:11;;;;;;;12.30;10.32;;;27.60;58.90;;;;;;5027805;28;20524;-82
2021/09/08 11:58:42;;;;;;;16.10;10.27;;;27.60;58.80;;;;;;5035156;28;20207;-83
2021/09/08 12:01:12;;;;;;;13.50;10.70;;;27.70;58.90;;;;;;5022320;28;20080;-82
2021/09/08 12:03:53;;;;;;;14.45;10.57;;;27.70;58.80;;;;;;5008933;28;20511;-85
2021/09/08 12:06:21;;;;;;;15.00;9.13;;;27.70;58.80;;;;;;5027621;28;20163;-81
2021/09/08 12:08:57;;;;;;;11.88;10.35;;;27.80;58.80;;;;;;5027393;28;20064;-85
2021/09/08 12:11:44;;;;;;;16.33;10.30;;;27.80;58.60;;;;;;5030317;28;20037;-84
2021/09/08 12:14:29;;;;;;;12.57;10.18;;;27.90;58.50;;;;;;5047404;28;20025;-84
2021/09/08 12:16:56;;;;;;;10.65;9.55;;;28.00;58.50;;;;;;5045327;28;20029;-85
2021/09/08 12:19:35;;;;;;;13.65;10.48;;;28.00;58.50;;;;;;5031353;28;20505;-84
2021/09/08 12:22:08;;;;;;;13.68;11.23;;;28.00;58.30;;;;;;5025593;28;20084;-85
2021/09/08 12:24:56;;;;;;;15.55;10.98;;;28.10;58.50;;;;;;5025948;28;20056;-85
2021/09/08 12:27:33;;;;;;;10.85;9.88;;;28.20;58.70;;;;;;5009608;28;20416;-84
2021/09/08 12:30:23;;;;;;;11.15;10.05;;;28.20;58.70;;;;;;5028136;28;20029;-88